| time (UTC) | temp F | wind direction | speed knots | gust knots | rain 1hr in | rain 24hr in | rain mn in | humidity % | barometer mb |
| 20260506203045 | 69 | 283 | 0.0 | 2.6 | 0.00 | 0.00 | 0.00 | 62 | 1018.0 |
| 20260506201543 | 68 | 255 | 0.9 | 3.5 | 0.00 | 0.00 | 0.00 | 63 | 1018.0 |
| 20260506200048 | 69 | 0 | 0.9 | 5.2 | 0.00 | 0.00 | 0.00 | 61 | 1018.1 |
| 20260506194553 | 69 | 313 | 0.0 | 2.6 | 0.00 | 0.00 | 0.00 | 61 | 1018.2 |
| 20260506193046 | 69 | 232 | 0.0 | 3.5 | 0.00 | 0.00 | 0.00 | 61 | 1018.3 |
| 20260506191557 | 68 | 262 | 0.9 | 3.5 | 0.00 | 0.00 | 0.00 | 62 | 1018.3 |
| 20260506190046 | 68 | 285 | 0.9 | 5.2 | 0.00 | 0.00 | 0.00 | 63 | 1018.4 |
| 20260506184548 | 67 | 260 | 0.9 | 3.5 | 0.00 | 0.00 | 0.00 | 65 | 1018.5 |
| 20260506183050 | 66 | 258 | 0.0 | 2.6 | 0.00 | 0.00 | 0.00 | 67 | 1018.6 |
| 20260506181549 | 66 | 252 | 0.0 | 1.7 | 0.00 | 0.00 | 0.00 | 65 | 1018.7 |
| 20260506180052 | 65 | 0 | 0.9 | 2.6 | 0.00 | 0.00 | 0.00 | 70 | 1018.6 |
| 20260506174548 | 64 | 0 | 0.0 | 2.6 | 0.00 | 0.00 | 0.00 | 70 | 1018.7 |
| 20260506173056 | 63 | 0 | 0.0 | 2.6 | 0.00 | 0.00 | 0.00 | 73 | 1018.7 |
| 20260506171557 | 63 | 0 | 0.9 | 3.5 | 0.00 | 0.00 | 0.00 | 74 | 1018.7 |
| 20260506170058 | 63 | 0 | 0.0 | 2.6 | 0.00 | 0.00 | 0.00 | 74 | 1018.7 |
| 20260506164606 | 62 | 263 | 0.9 | 2.6 | 0.00 | 0.00 | 0.00 | 73 | 1018.5 |
| 20260506163057 | 62 | 259 | 0.0 | 1.7 | 0.00 | 0.00 | 0.00 | 73 | 1018.6 |
| 20260506161546 | 61 | 0 | 0.9 | 2.6 | 0.00 | 0.00 | 0.00 | 75 | 1018.5 |
| 20260506160106 | 60 | 218 | 0.0 | 1.7 | 0.00 | 0.00 | 0.00 | 75 | 1018.5 |
| 20260506154553 | 59 | 253 | 0.0 | 1.7 | 0.00 | 0.00 | 0.00 | 80 | 1018.5 |
| 20260506153049 | 59 | 0 | 0.0 | 0.9 | 0.00 | 0.00 | 0.00 | 81 | 1018.6 |
| 20260506151553 | 58 | 0 | 0.0 | 0.9 | 0.00 | 0.00 | 0.00 | 84 | 1018.6 |
| 20260506150047 | 57 | 0 | 0.0 | 0.9 | 0.00 | 0.00 | 0.00 | 85 | 1018.5 |
| 20260506144552 | 56 | 0 | 0.0 | 0.9 | 0.00 | 0.00 | 0.00 | 88 | 1018.5 |
| 20260506143052 | 54 | 0 | 0.0 | 0.9 | 0.00 | 0.00 | 0.00 | 88 | 1018.4 |
| 20260506141606 | 53 | 0 | 0.0 | 0.9 | 0.00 | 0.00 | 0.00 | 88 | 1018.3 |
| 20260506140048 | 51 | 0 | 0.0 | 0.9 | 0.00 | 0.00 | 0.00 | 90 | 1018.2 |
| 20260506134546 | 49 | 0 | 0.0 | 0.9 | 0.00 | 0.00 | 0.00 | 91 | 1018.0 |
| 20260506133103 | 49 | 0 | 0.0 | 0.9 | 0.00 | 0.00 | 0.00 | 90 | 1017.9 |
| 20260506131544 | 49 | 0 | 0.0 | 0.9 | 0.00 | 0.00 | 0.00 | 90 | 1017.7 |
| 20260506130048 | 49 | 0 | 0.0 | 0.9 | 0.00 | 0.00 | 0.00 | 90 | 1017.6 |
| 20260506124548 | 49 | 0 | 0.0 | 0.9 | 0.00 | 0.00 | 0.00 | 90 | 1017.6 |
| 20260506123049 | 50 | 0 | 0.0 | 0.9 | 0.00 | 0.00 | 0.00 | 89 | 1017.6 |
| 20260506121555 | 50 | 0 | 0.0 | 0.9 | 0.00 | 0.00 | 0.00 | 89 | 1017.5 |
| 20260506120116 | 50 | 0 | 0.0 | 0.9 | 0.00 | 0.00 | 0.00 | 89 | 1017.6 |
| 20260506114550 | 50 | 0 | 0.0 | 0.9 | 0.00 | 0.00 | 0.00 | 89 | 1017.4 |
| 20260506113048 | 50 | 0 | 0.0 | 0.9 | 0.00 | 0.00 | 0.00 | 89 | 1017.4 |
| 20260506111549 | 51 | 0 | 0.0 | 0.9 | 0.00 | 0.00 | 0.00 | 88 | 1017.3 |
| 20260506110048 | 51 | 0 | 0.0 | 0.9 | 0.00 | 0.00 | 0.00 | 88 | 1017.3 |
| 20260506104548 | 51 | 0 | 0.0 | 0.9 | 0.00 | 0.00 | 0.00 | 88 | 1017.2 |
| 20260506103053 | 51 | 0 | 0.0 | 0.9 | 0.00 | 0.00 | 0.00 | 88 | 1017.2 |
| 20260506101549 | 51 | 0 | 0.0 | 0.9 | 0.00 | 0.00 | 0.00 | 88 | 1017.1 |
| 20260506100046 | 52 | 0 | 0.0 | 0.9 | 0.00 | 0.00 | 0.00 | 87 | 1017.2 |
| 20260506094551 | 52 | 0 | 0.0 | 0.9 | 0.00 | 0.00 | 0.00 | 87 | 1017.2 |
| 20260506093052 | 52 | 247 | 0.0 | 0.9 | 0.00 | 0.00 | 0.00 | 86 | 1017.1 |
| 20260506091551 | 52 | 0 | 0.0 | 0.9 | 0.00 | 0.00 | 0.00 | 86 | 1017.1 |
| 20260506090048 | 53 | 0 | 0.0 | 0.9 | 0.00 | 0.00 | 0.00 | 86 | 1017.1 |
| 20260506084548 | 53 | 0 | 0.0 | 0.9 | 0.00 | 0.00 | 0.00 | 85 | 1017.5 |
| 20260506083049 | 53 | 0 | 0.0 | 0.9 | 0.00 | 0.00 | 0.00 | 85 | 1017.5 |
| 20260506081552 | 54 | 0 | 0.0 | 0.9 | 0.00 | 0.00 | 0.00 | 84 | 1017.5 |
| 20260506073048 | 55 | 0 | 0.0 | 1.7 | 0.00 | 0.00 | 0.00 | 82 | 1017.3 |
| 20260506071551 | 56 | 0 | 0.0 | 0.9 | 0.00 | 0.00 | 0.00 | 82 | 1017.3 |
| 20260506070105 | 57 | 0 | 0.0 | 1.7 | 0.00 | 0.00 | 0.00 | 82 | 1017.1 |
| 20260506061543 | 58 | 0 | 0.0 | 1.7 | 0.00 | 0.00 | 0.00 | 81 | 1016.6 |
| 20260506044558 | 62 | 0 | 0.0 | 3.5 | 0.00 | 0.00 | 0.00 | 65 | 1015.5 |
| 20260506043050 | 62 | 0 | 0.0 | 2.6 | 0.00 | 0.00 | 0.00 | 65 | 1015.5 |
| 20260506041552 | 63 | 0 | 0.0 | 2.6 | 0.00 | 0.00 | 0.00 | 64 | 1015.3 |
| 20260506040053 | 63 | 82 | 0.0 | 3.5 | 0.00 | 0.00 | 0.00 | 64 | 1014.9 |
| 20260506034550 | 63 | 227 | 0.0 | 3.5 | 0.00 | 0.00 | 0.00 | 64 | 1014.8 |
| 20260506033049 | 64 | 0 | 0.0 | 2.6 | 0.00 | 0.00 | 0.00 | 63 | 1014.6 |
| 20260506031558 | 64 | 233 | 0.9 | 2.6 | 0.00 | 0.00 | 0.00 | 62 | 1014.3 |
| 20260506030108 | 64 | 236 | 0.0 | 5.2 | 0.00 | 0.00 | 0.00 | 61 | 1014.2 |
| 20260506024550 | 65 | 218 | 0.9 | 4.3 | 0.00 | 0.00 | 0.00 | 60 | 1014.0 |
| 20260506023046 | 64 | 0 | 0.9 | 3.5 | 0.00 | 0.00 | 0.00 | 61 | 1013.7 |
| 20260506021543 | 64 | 0 | 0.0 | 1.7 | 0.00 | 0.00 | 0.00 | 66 | 1013.7 |
| 20260506020048 | 65 | 254 | 0.0 | 1.7 | 0.00 | 0.00 | 0.00 | 66 | 1013.6 |
| 20260506014558 | 66 | 0 | 0.0 | 2.6 | 0.00 | 0.00 | 0.00 | 64 | 1013.5 |
| 20260506013050 | 67 | 0 | 0.0 | 0.9 | 0.00 | 0.00 | 0.00 | 61 | 1013.4 |
| 20260506011555 | 68 | 220 | 0.0 | 1.7 | 0.00 | 0.00 | 0.00 | 60 | 1013.4 |
| 20260506010046 | 67 | 229 | 0.0 | 1.7 | 0.00 | 0.00 | 0.00 | 61 | 1013.3 |
| 20260506004622 | 67 | 264 | 0.0 | 3.5 | 0.00 | 0.00 | 0.00 | 62 | 1013.2 |
| 20260506003048 | 67 | 0 | 0.0 | 3.5 | 0.00 | 0.00 | 0.00 | 61 | 1013.2 |
| 20260506001549 | 69 | 0 | 0.0 | 2.6 | 0.00 | 0.00 | 0.00 | 56 | 1013.2 |
| 20260506000047 | 69 | 0 | 0.9 | 2.6 | 0.00 | 0.00 | 0.00 | 53 | 1012.9 |
| 20260505234609 | 70 | 0 | 0.9 | 4.3 | 0.00 | 0.00 | 0.00 | 52 | 1012.9 |
| 20260505233045 | 69 | 232 | 0.9 | 4.3 | 0.00 | 0.00 | 0.00 | 55 | 1012.9 |
| 20260505231551 | 68 | 222 | 0.9 | 4.3 | 0.00 | 0.00 | 0.00 | 54 | 1012.8 |
| 20260505230052 | 68 | 0 | 1.7 | 6.1 | 0.00 | 0.00 | 0.00 | 54 | 1012.8 |
| 20260505224546 | 67 | 233 | 0.9 | 3.5 | 0.00 | 0.00 | 0.00 | 60 | 1013.0 |
| 20260505223100 | 66 | 237 | 1.7 | 6.1 | 0.00 | 0.00 | 0.00 | 61 | 1013.3 |
| 20260505221605 | 66 | 308 | 1.7 | 7.0 | 0.00 | 0.00 | 0.00 | 61 | 1013.4 |
| 20260505220100 | 66 | 308 | 0.9 | 7.0 | 0.00 | 0.00 | 0.00 | 60 | 1013.5 |
| 20260505214559 | 67 | 333 | 1.7 | 7.0 | 0.00 | 0.00 | 0.00 | 58 | 1013.7 |
| 20260505213049 | 68 | 302 | 1.7 | 6.1 | 0.00 | 0.00 | 0.00 | 57 | 1013.8 |
| 20260505211549 | 66 | 0 | 1.7 | 5.2 | 0.00 | 0.00 | 0.00 | 60 | 1013.9 |
| 20260505210051 | 66 | 227 | 0.9 | 2.6 | 0.00 | 0.00 | 0.00 | 61 | 1014.1 |
| 20260505204550 | 66 | 0 | 0.0 | 2.6 | 0.00 | 0.00 | 0.00 | 61 | 1014.2 |